createdAt,value
2022-09-06T00:05:22.143Z,63.02
2022-09-06T00:15:43.678Z,63.55
2022-09-06T00:26:05.530Z,63.58
2022-09-06T00:36:27.320Z,63.98
2022-09-06T00:46:51.275Z,64.58
2022-09-06T00:57:15.621Z,63.88
2022-09-06T01:07:59.878Z,64.90
2022-09-06T01:18:58.786Z,65.40
2022-09-06T01:29:32.871Z,65.71
2022-09-06T01:39:54.407Z,66.42
2022-09-06T01:50:43.456Z,66.89
2022-09-06T02:01:22.448Z,67.49
2022-09-06T02:12:05.938Z,67.93
2022-09-06T02:22:31.445Z,68.42
2022-09-06T02:33:02.767Z,68.37
2022-09-06T02:43:24.361Z,68.28
2022-09-06T02:53:46.454Z,69.13
2022-09-06T03:04:08.676Z,68.98
2022-09-06T03:14:30.156Z,68.70
2022-09-06T03:24:51.866Z,69.25
2022-09-06T03:35:13.562Z,69.17
2022-09-06T03:45:35.157Z,69.69
2022-09-06T03:55:58.153Z,69.40
2022-09-06T04:06:19.660Z,69.94
2022-09-06T04:16:41.800Z,69.88
2022-09-06T04:27:04.135Z,69.23
2022-09-06T04:37:25.709Z,68.52
2022-09-06T04:47:47.273Z,69.30
2022-09-06T04:58:08.800Z,69.23
2022-09-06T05:08:30.267Z,67.76
2022-09-06T05:18:51.980Z,68.28
2022-09-06T05:29:13.593Z,68.27
2022-09-06T05:39:35.162Z,67.71
2022-09-06T05:49:56.692Z,100.00
2022-09-06T06:00:18.277Z,100.00
2022-09-06T06:10:40.644Z,100.00
2022-09-06T06:21:14.666Z,100.00
2022-09-06T06:31:38.018Z,100.00
2022-09-06T06:41:59.577Z,100.00
2022-09-06T06:52:22.029Z,100.00
2022-09-06T07:02:43.966Z,100.00
2022-09-06T07:13:05.536Z,100.00
2022-09-06T07:34:08.547Z,100.00
2022-09-06T07:44:30.089Z,100.00
2022-09-06T07:54:51.563Z,100.00
2022-09-06T08:16:03.325Z,100.00
2022-09-06T08:26:26.515Z,100.00
2022-09-06T08:36:47.998Z,100.00
2022-09-06T08:47:10.908Z,98.58
2022-09-06T08:57:50.887Z,99.83
2022-09-06T09:08:37.309Z,93.71
2022-09-06T09:19:01.733Z,89.89
2022-09-06T09:29:28.762Z,94.34
2022-09-06T09:39:55.464Z,94.29
2022-09-06T09:50:26.460Z,93.91
2022-09-06T10:00:48.413Z,88.75
2022-09-06T10:11:14.488Z,92.04
2022-09-06T10:21:36.056Z,93.87
2022-09-06T10:32:36.066Z,89.12
2022-09-06T10:43:00.455Z,81.59
2022-09-06T10:53:47.981Z,81.54
2022-09-06T11:04:20.150Z,81.70
2022-09-06T11:14:41.819Z,79.63
2022-09-06T11:25:42.165Z,79.16
2022-09-06T11:36:22.919Z,78.82
2022-09-06T11:46:44.468Z,76.45
2022-09-06T11:57:21.663Z,77.59
2022-09-06T12:08:09.103Z,78.34
2022-09-06T12:18:43.039Z,79.49
2022-09-06T12:29:10.751Z,80.10
2022-09-06T12:39:32.622Z,80.31
2022-09-06T12:50:13.102Z,80.03
2022-09-06T13:00:40.469Z,76.84
2022-09-06T13:11:08.035Z,75.32
2022-09-06T13:21:32.900Z,74.96
2022-09-06T13:31:56.954Z,78.01
2022-09-06T13:42:29.548Z,77.88
2022-09-06T13:52:51.044Z,74.36
2022-09-06T14:03:22.434Z,76.24
2022-09-06T14:13:44.237Z,75.07
2022-09-06T14:24:06.314Z,75.09
2022-09-06T14:34:27.999Z,73.64
2022-09-06T14:44:49.526Z,71.92
2022-09-06T14:55:11.277Z,74.03
2022-09-06T15:05:32.926Z,73.90
2022-09-06T15:15:55.354Z,73.28
2022-09-06T15:26:16.977Z,71.27
2022-09-06T15:36:38.539Z,71.60
2022-09-06T15:47:00.110Z,71.89
2022-09-06T15:57:21.775Z,72.61
2022-09-06T16:07:44.677Z,70.91
2022-09-06T16:18:06.185Z,70.78
2022-09-06T16:28:29.716Z,71.87
2022-09-06T16:38:51.461Z,71.77
2022-09-06T16:49:13.858Z,71.21
2022-09-06T16:59:35.463Z,71.84
2022-09-06T17:09:57.003Z,77.54
2022-09-06T17:20:20.625Z,76.76
2022-09-06T17:30:42.165Z,77.29
2022-09-06T17:41:04.290Z,79.41
2022-09-06T17:51:26.137Z,79.88
2022-09-06T18:01:47.779Z,78.78
2022-09-06T18:12:09.402Z,77.64
2022-09-06T18:22:31.094Z,79.63
2022-09-06T18:32:52.855Z,78.18
2022-09-06T18:43:14.379Z,82.12
2022-09-06T18:53:36.236Z,82.84
2022-09-06T19:03:59.133Z,80.39
2022-09-06T19:14:20.985Z,81.44
2022-09-06T19:24:44.358Z,79.45
2022-09-06T19:35:06.188Z,80.80
2022-09-06T19:45:27.784Z,82.85
2022-09-06T19:55:49.315Z,81.46
2022-09-06T20:06:11.443Z,84.88
2022-09-06T20:16:34.044Z,84.83
2022-09-06T20:26:57.640Z,85.60
2022-09-06T20:37:19.696Z,85.75
2022-09-06T20:47:41.797Z,88.07
2022-09-06T20:58:03.338Z,86.36
2022-09-06T21:08:26.124Z,86.16
2022-09-06T21:18:52.277Z,85.02
2022-09-06T21:29:13.950Z,86.03
2022-09-06T21:39:35.585Z,89.39
2022-09-06T21:49:57.288Z,88.82
2022-09-06T22:00:18.999Z,88.73
2022-09-06T22:10:40.562Z,89.86
2022-09-06T22:21:11.693Z,88.60
2022-09-06T22:31:34.783Z,89.39
2022-09-06T22:41:56.379Z,89.16
2022-09-06T22:52:18.120Z,89.47
2022-09-06T23:02:39.658Z,90.04
2022-09-06T23:13:01.197Z,90.42
2022-09-06T23:23:22.730Z,91.78
2022-09-06T23:33:44.357Z,89.93
2022-09-06T23:44:05.948Z,91.40
2022-09-06T23:54:27.447Z,90.98
